sensor_id;sensor_type;location;lat;lon;timestamp;P1;durP1;ratioP1;P2;durP2;ratioP2
14708;SDS011;7445;50.774;4.944;2023-05-10T07:19:49;490.23;;;473.07;;
14708;SDS011;7445;50.774;4.944;2023-05-10T07:22:15;528.83;;;509.63;;
14708;SDS011;7445;50.774;4.944;2023-05-10T07:24:41;553.70;;;533.53;;
14708;SDS011;7445;50.774;4.944;2023-05-10T07:27:09;541.03;;;521.43;;
14708;SDS011;7445;50.774;4.944;2023-05-10T07:29:35;542.83;;;522.77;;
14708;SDS011;7445;50.774;4.944;2023-05-10T07:32:01;560.67;;;539.50;;
14708;SDS011;7445;50.774;4.944;2023-05-10T07:34:27;553.40;;;532.70;;
14708;SDS011;7445;50.774;4.944;2023-05-10T07:36:54;570.67;;;548.83;;
14708;SDS011;7445;50.774;4.944;2023-05-10T07:39:20;564.03;;;542.93;;
14708;SDS011;7445;50.774;4.944;2023-05-10T07:41:46;580.07;;;558.07;;
14708;SDS011;7445;50.774;4.944;2023-05-10T07:44:12;554.70;;;533.90;;
14708;SDS011;7445;50.774;4.944;2023-05-10T07:46:38;570.60;;;549.03;;
14708;SDS011;7445;50.774;4.944;2023-05-10T07:49:04;579.70;;;557.17;;
14708;SDS011;7445;50.774;4.944;2023-05-10T07:51:29;591.10;;;568.03;;
14708;SDS011;7445;50.774;4.944;2023-05-10T07:53:55;591.60;;;569.00;;
14708;SDS011;7445;50.774;4.944;2023-05-10T07:56:29;587.43;;;564.83;;
14708;SDS011;7445;50.774;4.944;2023-05-10T07:58:56;580.17;;;558.00;;
14708;SDS011;7445;50.774;4.944;2023-05-10T08:01:25;579.70;;;557.80;;
14708;SDS011;7445;50.774;4.944;2023-05-10T08:03:52;603.10;;;579.30;;
14708;SDS011;7445;50.774;4.944;2023-05-10T08:06:19;660.87;;;633.20;;
14708;SDS011;7445;50.774;4.944;2023-05-10T08:08:45;634.67;;;608.70;;
14708;SDS011;7445;50.774;4.944;2023-05-10T08:11:14;627.97;;;602.80;;
14708;SDS011;7445;50.774;4.944;2023-05-10T08:13:41;639.60;;;612.10;;
14708;SDS011;7445;50.774;4.944;2023-05-10T08:16:07;624.90;;;599.80;;
14708;SDS011;7445;50.774;4.944;2023-05-10T08:18:32;642.20;;;615.77;;
14708;SDS011;7445;50.774;4.944;2023-05-10T08:20:58;666.47;;;637.83;;
14708;SDS011;7445;50.774;4.944;2023-05-10T08:23:24;696.83;;;666.73;;
14708;SDS011;7445;50.774;4.944;2023-05-10T08:25:49;693.03;;;663.30;;
14708;SDS011;7445;50.774;4.944;2023-05-10T08:28:15;692.33;;;662.27;;
14708;SDS011;7445;50.774;4.944;2023-05-10T08:30:40;703.93;;;673.13;;
14708;SDS011;7445;50.774;4.944;2023-05-10T08:33:07;717.03;;;685.63;;
14708;SDS011;7445;50.774;4.944;2023-05-10T08:35:33;691.30;;;661.23;;
14708;SDS011;7445;50.774;4.944;2023-05-10T08:38:00;704.30;;;672.70;;
14708;SDS011;7445;50.774;4.944;2023-05-10T08:40:26;731.50;;;698.27;;
14708;SDS011;7445;50.774;4.944;2023-05-10T08:43:05;702.40;;;671.43;;
14708;SDS011;7445;50.774;4.944;2023-05-10T08:45:33;663.43;;;635.03;;
14708;SDS011;7445;50.774;4.944;2023-05-10T08:48:05;698.60;;;667.93;;
14708;SDS011;7445;50.774;4.944;2023-05-10T08:50:31;715.83;;;683.90;;
14708;SDS011;7445;50.774;4.944;2023-05-10T08:53:04;691.10;;;660.70;;
14708;SDS011;7445;50.774;4.944;2023-05-10T08:55:32;744.27;;;709.87;;
14708;SDS011;7445;50.774;4.944;2023-05-10T08:57:59;744.23;;;709.43;;
14708;SDS011;7445;50.774;4.944;2023-05-10T09:00:25;752.00;;;716.43;;
14708;SDS011;7445;50.774;4.944;2023-05-10T09:02:51;799.30;;;760.40;;
14708;SDS011;7445;50.774;4.944;2023-05-10T09:05:18;834.30;;;791.90;;
14708;SDS011;7445;50.774;4.944;2023-05-10T09:07:45;832.03;;;790.33;;
14708;SDS011;7445;50.774;4.944;2023-05-10T09:10:11;829.93;;;788.80;;
14708;SDS011;7445;50.774;4.944;2023-05-10T09:12:39;848.47;;;805.70;;
14708;SDS011;7445;50.774;4.944;2023-05-10T09:15:07;833.07;;;791.40;;
14708;SDS011;7445;50.774;4.944;2023-05-10T09:17:34;880.27;;;834.73;;
14708;SDS011;7445;50.774;4.944;2023-05-10T09:20:02;887.47;;;840.97;;
14708;SDS011;7445;50.774;4.944;2023-05-10T09:22:31;826.83;;;785.63;;
14708;SDS011;7445;50.774;4.944;2023-05-10T09:27:34;836.17;;;793.80;;
14708;SDS011;7445;50.774;4.944;2023-05-10T09:30:00;858.20;;;814.40;;
14708;SDS011;7445;50.774;4.944;2023-05-10T09:32:37;832.33;;;789.43;;
14708;SDS011;7445;50.774;4.944;2023-05-10T09:35:09;827.53;;;786.60;;
14708;SDS011;7445;50.774;4.944;2023-05-10T09:37:38;839.43;;;797.30;;
14708;SDS011;7445;50.774;4.944;2023-05-10T09:40:12;854.83;;;811.53;;
14708;SDS011;7445;50.774;4.944;2023-05-10T09:45:18;842.10;;;799.60;;
14708;SDS011;7445;50.774;4.944;2023-05-10T09:47:43;886.07;;;840.30;;
14708;SDS011;7445;50.774;4.944;2023-05-10T09:50:11;906.73;;;857.97;;
14708;SDS011;7445;50.774;4.944;2023-05-10T09:52:53;905.63;;;857.60;;
14708;SDS011;7445;50.774;4.944;2023-05-10T09:55:24;823.73;;;782.60;;
14708;SDS011;7445;50.774;4.944;2023-05-10T09:58:00;835.20;;;793.83;;
14708;SDS011;7445;50.774;4.944;2023-05-10T10:00:27;878.00;;;832.97;;
14708;SDS011;7445;50.774;4.944;2023-05-10T10:02:56;912.80;;;864.20;;
14708;SDS011;7445;50.774;4.944;2023-05-10T10:05:33;906.33;;;857.70;;
14708;SDS011;7445;50.774;4.944;2023-05-10T10:08:01;914.43;;;865.07;;
14708;SDS011;7445;50.774;4.944;2023-05-10T10:10:29;957.37;;;905.20;;
14708;SDS011;7445;50.774;4.944;2023-05-10T10:12:56;948.97;;;897.50;;
14708;SDS011;7445;50.774;4.944;2023-05-10T10:15:23;964.83;;;911.07;;
14708;SDS011;7445;50.774;4.944;2023-05-10T10:17:49;977.53;;;923.07;;
14708;SDS011;7445;50.774;4.944;2023-05-10T10:20:16;999.37;;;943.13;;
14708;SDS011;7445;50.774;4.944;2023-05-10T10:22:43;984.43;;;929.10;;
14708;SDS011;7445;50.774;4.944;2023-05-10T10:25:13;992.70;;;936.47;;
14708;SDS011;7445;50.774;4.944;2023-05-10T10:27:46;988.83;;;933.60;;
14708;SDS011;7445;50.774;4.944;2023-05-10T10:30:37;995.50;;;938.47;;
14708;SDS011;7445;50.774;4.944;2023-05-10T10:35:53;969.10;;;915.17;;
14708;SDS011;7445;50.774;4.944;2023-05-10T10:38:20;1018.27;;;959.00;;
14708;SDS011;7445;50.774;4.944;2023-05-10T10:40:47;997.90;;;940.63;;
14708;SDS011;7445;50.774;4.944;2023-05-10T10:43:26;991.03;;;934.43;;
14708;SDS011;7445;50.774;4.944;2023-05-10T10:48:34;1005.27;;;948.10;;
14708;SDS011;7445;50.774;4.944;2023-05-10T10:51:01;1010.43;;;952.53;;
14708;SDS011;7445;50.774;4.944;2023-05-10T10:53:28;1031.53;;;970.53;;
14708;SDS011;7445;50.774;4.944;2023-05-10T10:56:10;1050.40;;;987.87;;
14708;SDS011;7445;50.774;4.944;2023-05-10T10:58:40;1003.07;;;944.67;;
14708;SDS011;7445;50.774;4.944;2023-05-10T11:01:18;1035.17;;;974.13;;
14708;SDS011;7445;50.774;4.944;2023-05-10T11:06:29;1043.53;;;980.93;;
14708;SDS011;7445;50.774;4.944;2023-05-10T11:08:59;1060.60;;;992.63;;
14708;SDS011;7445;50.774;4.944;2023-05-10T11:11:36;1058.77;;;991.63;;
14708;SDS011;7445;50.774;4.944;2023-05-10T11:14:17;1034.43;;;972.37;;
14708;SDS011;7445;50.774;4.944;2023-05-10T11:16:45;1020.00;;;958.13;;
14708;SDS011;7445;50.774;4.944;2023-05-10T11:19:11;980.77;;;922.60;;
14708;SDS011;7445;50.774;4.944;2023-05-10T11:21:45;1060.23;;;992.43;;
14708;SDS011;7445;50.774;4.944;2023-05-10T11:24:17;1052.20;;;986.83;;
14708;SDS011;7445;50.774;4.944;2023-05-10T11:26:44;1096.37;;;999.90;;
14708;SDS011;7445;50.774;4.944;2023-05-10T11:29:12;1076.10;;;999.37;;
14708;SDS011;7445;50.774;4.944;2023-05-10T11:31:42;1082.13;;;999.53;;
14708;SDS011;7445;50.774;4.944;2023-05-10T11:34:10;1073.93;;;997.73;;
14708;SDS011;7445;50.774;4.944;2023-05-10T11:36:36;1084.80;;;999.90;;
14708;SDS011;7445;50.774;4.944;2023-05-10T11:39:03;1047.60;;;982.27;;
14708;SDS011;7445;50.774;4.944;2023-05-10T11:41:30;1088.90;;;999.90;;
14708;SDS011;7445;50.774;4.944;2023-05-10T11:43:56;1085.70;;;999.90;;
14708;SDS011;7445;50.774;4.944;2023-05-10T11:46:23;1102.10;;;999.90;;
14708;SDS011;7445;50.774;4.944;2023-05-10T11:48:51;1081.70;;;999.90;;
14708;SDS011;7445;50.774;4.944;2023-05-10T11:51:20;1090.20;;;999.90;;
14708;SDS011;7445;50.774;4.944;2023-05-10T11:53:47;1093.57;;;999.90;;
14708;SDS011;7445;50.774;4.944;2023-05-10T11:56:14;1099.60;;;999.90;;
14708;SDS011;7445;50.774;4.944;2023-05-10T11:58:39;1087.97;;;999.90;;
14708;SDS011;7445;50.774;4.944;2023-05-10T12:01:06;1082.93;;;999.73;;
14708;SDS011;7445;50.774;4.944;2023-05-10T12:03:33;1086.90;;;999.90;;
14708;SDS011;7445;50.774;4.944;2023-05-10T12:05:59;1080.70;;;999.90;;
14708;SDS011;7445;50.774;4.944;2023-05-10T12:08:27;1075.87;;;999.40;;
14708;SDS011;7445;50.774;4.944;2023-05-10T12:11:05;1074.13;;;998.83;;
14708;SDS011;7445;50.774;4.944;2023-05-10T12:13:32;1037.93;;;974.50;;
14708;SDS011;7445;50.774;4.944;2023-05-10T12:16:11;1048.83;;;982.70;;
14708;SDS011;7445;50.774;4.944;2023-05-10T12:18:40;1072.90;;;997.43;;
14708;SDS011;7445;50.774;4.944;2023-05-10T12:21:07;1141.00;;;999.90;;
14708;SDS011;7445;50.774;4.944;2023-05-10T12:23:37;1098.27;;;999.90;;
14708;SDS011;7445;50.774;4.944;2023-05-10T12:26:04;1129.57;;;999.90;;
14708;SDS011;7445;50.774;4.944;2023-05-10T12:28:30;1140.53;;;999.90;;
14708;SDS011;7445;50.774;4.944;2023-05-10T12:30:57;1125.13;;;999.90;;
14708;SDS011;7445;50.774;4.944;2023-05-10T12:33:24;1144.67;;;999.90;;
14708;SDS011;7445;50.774;4.944;2023-05-10T12:35:51;1113.80;;;999.90;;
14708;SDS011;7445;50.774;4.944;2023-05-10T12:38:25;1135.80;;;999.90;;
14708;SDS011;7445;50.774;4.944;2023-05-10T12:40:51;1143.83;;;999.90;;
14708;SDS011;7445;50.774;4.944;2023-05-10T12:43:16;1172.20;;;999.90;;
14708;SDS011;7445;50.774;4.944;2023-05-10T12:45:42;1096.87;;;999.90;;
14708;SDS011;7445;50.774;4.944;2023-05-10T12:48:12;1033.30;;;964.90;;
14708;SDS011;7445;50.774;4.944;2023-05-10T12:50:38;1023.87;;;957.90;;
14708;SDS011;7445;50.774;4.944;2023-05-10T12:53:04;1095.37;;;999.90;;
14708;SDS011;7445;50.774;4.944;2023-05-10T12:55:29;1168.10;;;999.90;;
14708;SDS011;7445;50.774;4.944;2023-05-10T12:57:55;1101.13;;;999.90;;
14708;SDS011;7445;50.774;4.944;2023-05-10T13:00:21;1107.60;;;999.90;;
14708;SDS011;7445;50.774;4.944;2023-05-10T13:02:47;1125.43;;;999.90;;
14708;SDS011;7445;50.774;4.944;2023-05-10T13:05:12;1076.67;;;997.77;;
14708;SDS011;7445;50.774;4.944;2023-05-10T13:07:38;1023.60;;;954.17;;
14708;SDS011;7445;50.774;4.944;2023-05-10T13:10:05;1139.67;;;999.90;;
14708;SDS011;7445;50.774;4.944;2023-05-10T13:12:31;1103.27;;;999.90;;
14708;SDS011;7445;50.774;4.944;2023-05-10T13:14:57;1074.30;;;993.03;;
14708;SDS011;7445;50.774;4.944;2023-05-10T13:17:22;1042.07;;;966.97;;
14708;SDS011;7445;50.774;4.944;2023-05-10T13:19:50;1030.87;;;958.57;;
14708;SDS011;7445;50.774;4.944;2023-05-10T13:22:16;1012.60;;;938.37;;
14708;SDS011;7445;50.774;4.944;2023-05-10T13:24:41;822.27;;;765.87;;
14708;SDS011;7445;50.774;4.944;2023-05-10T13:27:07;855.23;;;796.37;;
14708;SDS011;7445;50.774;4.944;2023-05-10T13:29:32;827.50;;;771.80;;
14708;SDS011;7445;50.774;4.944;2023-05-10T13:31:58;785.90;;;735.47;;
14708;SDS011;7445;50.774;4.944;2023-05-10T13:34:24;889.43;;;829.77;;
14708;SDS011;7445;50.774;4.944;2023-05-10T13:36:51;870.90;;;811.87;;
14708;SDS011;7445;50.774;4.944;2023-05-10T13:39:17;733.07;;;685.80;;
14708;SDS011;7445;50.774;4.944;2023-05-10T13:41:43;858.10;;;800.10;;
14708;SDS011;7445;50.774;4.944;2023-05-10T13:44:09;789.20;;;738.27;;
14708;SDS011;7445;50.774;4.944;2023-05-10T13:46:37;596.50;;;562.83;;
14708;SDS011;7445;50.774;4.944;2023-05-10T13:49:03;680.83;;;638.13;;
14708;SDS011;7445;50.774;4.944;2023-05-10T13:51:29;775.20;;;724.67;;
14708;SDS011;7445;50.774;4.944;2023-05-10T13:53:56;654.60;;;614.20;;
14708;SDS011;7445;50.774;4.944;2023-05-10T13:56:22;693.43;;;649.63;;
14708;SDS011;7445;50.774;4.944;2023-05-10T13:58:48;922.87;;;855.90;;
14708;SDS011;7445;50.774;4.944;2023-05-10T14:01:14;932.47;;;864.60;;
14708;SDS011;7445;50.774;4.944;2023-05-10T14:03:40;788.07;;;731.17;;
14708;SDS011;7445;50.774;4.944;2023-05-10T14:06:05;677.07;;;629.60;;
14708;SDS011;7445;50.774;4.944;2023-05-10T14:08:32;768.83;;;713.57;;
14708;SDS011;7445;50.774;4.944;2023-05-10T14:10:59;845.30;;;783.47;;
14708;SDS011;7445;50.774;4.944;2023-05-10T14:13:24;815.47;;;758.33;;
14708;SDS011;7445;50.774;4.944;2023-05-10T14:15:50;837.73;;;778.87;;
14708;SDS011;7445;50.774;4.944;2023-05-10T14:18:17;865.90;;;803.70;;
14708;SDS011;7445;50.774;4.944;2023-05-10T14:20:43;775.53;;;721.90;;
14708;SDS011;7445;50.774;4.944;2023-05-10T14:23:08;784.67;;;729.60;;
14708;SDS011;7445;50.774;4.944;2023-05-10T14:25:34;870.73;;;809.87;;
14708;SDS011;7445;50.774;4.944;2023-05-10T14:28:00;788.67;;;733.00;;
14708;SDS011;7445;50.774;4.944;2023-05-10T14:30:26;856.53;;;793.50;;
14708;SDS011;7445;50.774;4.944;2023-05-10T14:32:52;785.63;;;730.73;;
14708;SDS011;7445;50.774;4.944;2023-05-10T14:35:19;848.57;;;791.47;;
14708;SDS011;7445;50.774;4.944;2023-05-10T14:37:45;866.53;;;803.67;;
14708;SDS011;7445;50.774;4.944;2023-05-10T14:40:10;764.73;;;713.77;;
14708;SDS011;7445;50.774;4.944;2023-05-10T14:42:37;745.03;;;697.23;;
14708;SDS011;7445;50.774;4.944;2023-05-10T14:45:03;806.10;;;751.83;;
14708;SDS011;7445;50.774;4.944;2023-05-10T14:47:29;748.87;;;697.73;;
14708;SDS011;7445;50.774;4.944;2023-05-10T14:49:55;774.13;;;722.50;;
14708;SDS011;7445;50.774;4.944;2023-05-10T14:52:20;814.67;;;759.67;;
14708;SDS011;7445;50.774;4.944;2023-05-10T14:54:46;788.90;;;738.37;;
14708;SDS011;7445;50.774;4.944;2023-05-10T14:57:12;945.27;;;876.23;;
14708;SDS011;7445;50.774;4.944;2023-05-10T14:59:38;769.80;;;719.40;;
14708;SDS011;7445;50.774;4.944;2023-05-10T15:02:04;734.67;;;685.37;;
14708;SDS011;7445;50.774;4.944;2023-05-10T15:04:30;730.90;;;682.40;;
14708;SDS011;7445;50.774;4.944;2023-05-10T15:06:56;828.43;;;771.43;;
14708;SDS011;7445;50.774;4.944;2023-05-10T15:09:24;744.37;;;696.17;;
14708;SDS011;7445;50.774;4.944;2023-05-10T15:11:52;686.27;;;643.77;;
14708;SDS011;7445;50.774;4.944;2023-05-10T15:14:18;713.67;;;668.27;;
14708;SDS011;7445;50.774;4.944;2023-05-10T15:16:43;705.27;;;659.70;;
14708;SDS011;7445;50.774;4.944;2023-05-10T15:19:09;692.17;;;646.93;;
14708;SDS011;7445;50.774;4.944;2023-05-10T15:21:35;698.37;;;654.03;;
14708;SDS011;7445;50.774;4.944;2023-05-10T15:24:06;652.87;;;613.40;;
14708;SDS011;7445;50.774;4.944;2023-05-10T15:26:32;648.77;;;609.70;;
14708;SDS011;7445;50.774;4.944;2023-05-10T15:28:58;683.27;;;642.73;;
14708;SDS011;7445;50.774;4.944;2023-05-10T15:31:24;682.27;;;640.00;;
14708;SDS011;7445;50.774;4.944;2023-05-10T15:33:49;695.50;;;651.83;;
14708;SDS011;7445;50.774;4.944;2023-05-10T15:36:15;683.93;;;641.17;;
14708;SDS011;7445;50.774;4.944;2023-05-10T15:38:42;643.90;;;603.33;;
14708;SDS011;7445;50.774;4.944;2023-05-10T15:41:08;675.00;;;632.07;;
14708;SDS011;7445;50.774;4.944;2023-05-10T15:43:35;607.57;;;571.30;;
14708;SDS011;7445;50.774;4.944;2023-05-10T15:46:01;640.37;;;601.83;;
14708;SDS011;7445;50.774;4.944;2023-05-10T15:48:27;628.87;;;589.40;;
14708;SDS011;7445;50.774;4.944;2023-05-10T15:50:53;661.97;;;616.27;;
14708;SDS011;7445;50.774;4.944;2023-05-10T15:53:18;645.27;;;603.03;;
14708;SDS011;7445;50.774;4.944;2023-05-10T15:55:45;685.17;;;638.93;;
14708;SDS011;7445;50.774;4.944;2023-05-10T15:58:11;765.77;;;715.60;;
14708;SDS011;7445;50.774;4.944;2023-05-10T16:00:36;734.43;;;684.27;;
14708;SDS011;7445;50.774;4.944;2023-05-10T16:03:03;807.50;;;749.07;;
14708;SDS011;7445;50.774;4.944;2023-05-10T16:05:29;878.60;;;811.50;;
14708;SDS011;7445;50.774;4.944;2023-05-10T16:07:57;919.93;;;848.47;;
14708;SDS011;7445;50.774;4.944;2023-05-10T16:10:23;825.03;;;763.33;;
14708;SDS011;7445;50.774;4.944;2023-05-10T16:12:49;851.80;;;785.53;;
14708;SDS011;7445;50.774;4.944;2023-05-10T16:15:15;873.83;;;808.77;;
14708;SDS011;7445;50.774;4.944;2023-05-10T16:17:41;821.70;;;764.33;;
14708;SDS011;7445;50.774;4.944;2023-05-10T16:20:07;762.50;;;709.27;;
14708;SDS011;7445;50.774;4.944;2023-05-10T16:22:34;798.07;;;741.50;;
14708;SDS011;7445;50.774;4.944;2023-05-10T16:25:00;721.07;;;671.60;;
14708;SDS011;7445;50.774;4.944;2023-05-10T16:27:25;694.57;;;647.90;;
14708;SDS011;7445;50.774;4.944;2023-05-10T16:29:53;696.17;;;649.63;;
14708;SDS011;7445;50.774;4.944;2023-05-10T16:32:19;792.23;;;737.30;;
14708;SDS011;7445;50.774;4.944;2023-05-10T16:34:45;651.97;;;610.40;;
14708;SDS011;7445;50.774;4.944;2023-05-10T16:37:11;611.97;;;576.30;;
14708;SDS011;7445;50.774;4.944;2023-05-10T16:39:36;592.17;;;558.03;;
14708;SDS011;7445;50.774;4.944;2023-05-10T16:42:02;585.07;;;552.63;;
14708;SDS011;7445;50.774;4.944;2023-05-10T16:44:28;669.77;;;627.93;;
14708;SDS011;7445;50.774;4.944;2023-05-10T16:46:54;696.37;;;654.53;;
14708;SDS011;7445;50.774;4.944;2023-05-10T16:49:20;584.37;;;551.70;;
14708;SDS011;7445;50.774;4.944;2023-05-10T16:51:46;540.00;;;509.93;;
14708;SDS011;7445;50.774;4.944;2023-05-10T16:54:12;445.67;;;426.13;;
14708;SDS011;7445;50.774;4.944;2023-05-10T16:56:37;415.80;;;397.53;;
14708;SDS011;7445;50.774;4.944;2023-05-10T16:59:03;430.97;;;413.33;;
14708;SDS011;7445;50.774;4.944;2023-05-10T17:01:29;466.20;;;445.57;;
14708;SDS011;7445;50.774;4.944;2023-05-10T17:03:55;535.40;;;511.17;;
14708;SDS011;7445;50.774;4.944;2023-05-10T17:06:21;503.67;;;482.00;;
14708;SDS011;7445;50.774;4.944;2023-05-10T17:08:46;525.37;;;501.83;;
14708;SDS011;7445;50.774;4.944;2023-05-10T17:11:12;619.97;;;590.93;;
14708;SDS011;7445;50.774;4.944;2023-05-10T17:13:38;595.63;;;567.37;;
14708;SDS011;7445;50.774;4.944;2023-05-10T17:16:03;628.07;;;598.40;;
14708;SDS011;7445;50.774;4.944;2023-05-10T17:18:29;497.60;;;476.63;;
14708;SDS011;7445;50.774;4.944;2023-05-10T17:20:55;595.23;;;567.60;;
14708;SDS011;7445;50.774;4.944;2023-05-10T17:23:21;658.97;;;626.63;;
14708;SDS011;7445;50.774;4.944;2023-05-10T17:25:46;697.33;;;661.27;;
14708;SDS011;7445;50.774;4.944;2023-05-10T17:28:12;741.30;;;702.63;;
14708;SDS011;7445;50.774;4.944;2023-05-10T17:30:38;649.13;;;618.23;;
14708;SDS011;7445;50.774;4.944;2023-05-10T17:33:03;596.77;;;569.63;;
14708;SDS011;7445;50.774;4.944;2023-05-10T17:35:29;561.80;;;536.93;;
14708;SDS011;7445;50.774;4.944;2023-05-10T17:37:57;554.43;;;529.50;;
14708;SDS011;7445;50.774;4.944;2023-05-10T17:40:22;630.90;;;599.47;;
14708;SDS011;7445;50.774;4.944;2023-05-10T17:42:48;680.60;;;645.37;;
14708;SDS011;7445;50.774;4.944;2023-05-10T17:45:15;630.30;;;599.77;;
14708;SDS011;7445;50.774;4.944;2023-05-10T17:47:41;594.93;;;566.83;;
14708;SDS011;7445;50.774;4.944;2023-05-10T17:50:07;678.63;;;644.57;;
14708;SDS011;7445;50.774;4.944;2023-05-10T17:52:36;637.27;;;606.93;;
14708;SDS011;7445;50.774;4.944;2023-05-10T17:55:02;755.27;;;715.37;;
14708;SDS011;7445;50.774;4.944;2023-05-10T17:57:27;742.27;;;703.77;;
14708;SDS011;7445;50.774;4.944;2023-05-10T17:59:53;741.90;;;702.70;;
14708;SDS011;7445;50.774;4.944;2023-05-10T18:02:19;857.97;;;809.60;;
14708;SDS011;7445;50.774;4.944;2023-05-10T18:04:45;750.20;;;711.63;;
14708;SDS011;7445;50.774;4.944;2023-05-10T18:07:13;722.70;;;685.90;;
14708;SDS011;7445;50.774;4.944;2023-05-10T18:09:38;663.50;;;631.67;;
14708;SDS011;7445;50.774;4.944;2023-05-10T18:12:04;694.87;;;659.80;;
14708;SDS011;7445;50.774;4.944;2023-05-10T18:14:30;775.97;;;734.43;;
14708;SDS011;7445;50.774;4.944;2023-05-10T18:16:56;821.67;;;776.97;;
14708;SDS011;7445;50.774;4.944;2023-05-10T18:19:22;829.30;;;783.83;;
14708;SDS011;7445;50.774;4.944;2023-05-10T18:21:51;896.93;;;846.20;;
14708;SDS011;7445;50.774;4.944;2023-05-10T18:24:17;923.13;;;870.33;;
14708;SDS011;7445;50.774;4.944;2023-05-10T18:26:45;815.17;;;772.10;;
14708;SDS011;7445;50.774;4.944;2023-05-10T18:29:11;855.27;;;807.93;;
14708;SDS011;7445;50.774;4.944;2023-05-10T18:31:36;892.90;;;843.53;;
14708;SDS011;7445;50.774;4.944;2023-05-10T18:34:02;936.93;;;883.33;;
14708;SDS011;7445;50.774;4.944;2023-05-10T18:36:29;942.67;;;889.10;;
14708;SDS011;7445;50.774;4.944;2023-05-10T18:38:56;929.13;;;877.03;;
14708;SDS011;7445;50.774;4.944;2023-05-10T18:41:22;811.87;;;769.43;;
14708;SDS011;7445;50.774;4.944;2023-05-10T18:43:52;859.10;;;812.37;;
14708;SDS011;7445;50.774;4.944;2023-05-10T18:49:32;741.50;;;704.60;;
14708;SDS011;7445;50.774;4.944;2023-05-10T18:51:58;876.53;;;828.80;;
14708;SDS011;7445;50.774;4.944;2023-05-10T18:54:25;913.47;;;863.30;;
14708;SDS011;7445;50.774;4.944;2023-05-10T18:56:51;914.23;;;863.60;;
14708;SDS011;7445;50.774;4.944;2023-05-10T18:59:19;923.90;;;871.90;;
14708;SDS011;7445;50.774;4.944;2023-05-10T19:01:48;972.60;;;916.93;;
14708;SDS011;7445;50.774;4.944;2023-05-10T19:04:14;964.47;;;909.50;;
14708;SDS011;7445;50.774;4.944;2023-05-10T19:06:42;968.20;;;912.03;;
14708;SDS011;7445;50.774;4.944;2023-05-10T19:09:09;977.47;;;921.80;;
14708;SDS011;7445;50.774;4.944;2023-05-10T19:11:36;993.60;;;936.77;;
14708;SDS011;7445;50.774;4.944;2023-05-10T19:14:02;959.47;;;904.80;;
14708;SDS011;7445;50.774;4.944;2023-05-10T19:18:58;950.23;;;896.40;;
14708;SDS011;7445;50.774;4.944;2023-05-10T19:21:24;953.17;;;899.17;;
14708;SDS011;7445;50.774;4.944;2023-05-10T19:23:51;966.67;;;912.07;;
14708;SDS011;7445;50.774;4.944;2023-05-10T19:26:20;961.03;;;906.47;;
14708;SDS011;7445;50.774;4.944;2023-05-10T19:29:26;911.30;;;862.30;;
14708;SDS011;7445;50.774;4.944;2023-05-10T19:31:52;948.90;;;895.90;;
14708;SDS011;7445;50.774;4.944;2023-05-10T19:34:18;960.37;;;905.67;;
14708;SDS011;7445;50.774;4.944;2023-05-10T19:36:44;956.93;;;903.43;;
14708;SDS011;7445;50.774;4.944;2023-05-10T19:39:10;959.77;;;905.37;;
14708;SDS011;7445;50.774;4.944;2023-05-10T19:41:38;959.63;;;905.10;;
14708;SDS011;7445;50.774;4.944;2023-05-10T19:44:07;955.93;;;901.90;;
14708;SDS011;7445;50.774;4.944;2023-05-10T19:46:36;961.17;;;907.20;;
14708;SDS011;7445;50.774;4.944;2023-05-10T19:49:19;935.83;;;884.57;;
14708;SDS011;7445;50.774;4.944;2023-05-10T19:52:05;931.60;;;881.43;;
14708;SDS011;7445;50.774;4.944;2023-05-10T19:54:44;903.73;;;854.80;;
14708;SDS011;7445;50.774;4.944;2023-05-10T19:57:19;923.20;;;873.20;;
14708;SDS011;7445;50.774;4.944;2023-05-10T20:00:05;921.97;;;871.33;;
14708;SDS011;7445;50.774;4.944;2023-05-10T20:03:07;875.70;;;829.90;;
14708;SDS011;7445;50.774;4.944;2023-05-10T20:05:42;929.67;;;879.40;;
14708;SDS011;7445;50.774;4.944;2023-05-10T20:11:08;906.27;;;857.97;;
14708;SDS011;7445;50.774;4.944;2023-05-10T20:13:34;920.73;;;871.33;;
14708;SDS011;7445;50.774;4.944;2023-05-10T20:16:23;886.43;;;839.53;;
14708;SDS011;7445;50.774;4.944;2023-05-10T20:19:09;896.90;;;849.80;;
14708;SDS011;7445;50.774;4.944;2023-05-10T20:21:41;920.93;;;870.43;;
14708;SDS011;7445;50.774;4.944;2023-05-10T20:24:47;860.30;;;816.30;;
14708;SDS011;7445;50.774;4.944;2023-05-10T20:30:36;873.47;;;828.47;;
14708;SDS011;7445;50.774;4.944;2023-05-10T20:34:05;809.97;;;770.53;;
14708;SDS011;7445;50.774;4.944;2023-05-10T20:37:32;801.07;;;761.77;;
14708;SDS011;7445;50.774;4.944;2023-05-10T20:40:20;850.57;;;807.17;;
14708;SDS011;7445;50.774;4.944;2023-05-10T20:43:06;1189.60;;;999.90;;
14708;SDS011;7445;50.774;4.944;2023-05-10T20:45:32;1999.90;;;999.90;;
14708;SDS011;7445;50.774;4.944;2023-05-10T20:47:57;1306.73;;;999.90;;
14708;SDS011;7445;50.774;4.944;2023-05-10T20:50:24;1091.37;;;999.90;;
14708;SDS011;7445;50.774;4.944;2023-05-10T20:52:50;1018.30;;;957.60;;
14708;SDS011;7445;50.774;4.944;2023-05-10T20:55:16;1014.13;;;956.60;;
14708;SDS011;7445;50.774;4.944;2023-05-10T20:57:42;1006.70;;;949.77;;
14708;SDS011;7445;50.774;4.944;2023-05-10T21:00:09;972.87;;;918.63;;
14708;SDS011;7445;50.774;4.944;2023-05-10T21:02:35;962.70;;;909.40;;
14708;SDS011;7445;50.774;4.944;2023-05-10T21:05:01;945.33;;;893.80;;
14708;SDS011;7445;50.774;4.944;2023-05-10T21:07:26;949.47;;;896.73;;
14708;SDS011;7445;50.774;4.944;2023-05-10T21:09:52;955.83;;;902.40;;
14708;SDS011;7445;50.774;4.944;2023-05-10T21:12:18;1450.30;;;999.90;;
14708;SDS011;7445;50.774;4.944;2023-05-10T21:14:43;1108.87;;;999.90;;
14708;SDS011;7445;50.774;4.944;2023-05-10T21:17:12;994.33;;;938.30;;
14708;SDS011;7445;50.774;4.944;2023-05-10T21:19:38;971.03;;;917.20;;
14708;SDS011;7445;50.774;4.944;2023-05-10T21:22:04;968.17;;;914.57;;
14708;SDS011;7445;50.774;4.944;2023-05-10T21:24:30;968.07;;;914.53;;
14708;SDS011;7445;50.774;4.944;2023-05-10T21:26:55;964.93;;;910.27;;
14708;SDS011;7445;50.774;4.944;2023-05-10T21:29:21;957.57;;;904.27;;
14708;SDS011;7445;50.774;4.944;2023-05-10T21:31:47;963.70;;;910.47;;
